Tiempo atmosférico en la estación meteorológica de Castell Del Ferro, Granada (235 m.)



Fecha
DESCASC
Temp. máxima en grados centígrados (hora)
DESCASC
Temp. mínima en grados centígrados (hora)
DESCASC
Temp. media en grados centígrados
DESCASC
Racha de viento máxima en m/sg (hora)
DESCASC
Velocidad máxima media en intervalos de 10 minutos(hora)
DESCASC
Precipitaciones diarias en mm
DESCASC
Precipitaciones de 00:00 a 06:00 en mm
DESCASC
Precipitaciones de 06:00 a 12:00 en mm
DESCASC
Precipitaciones de 12:00 a 18:00 en mm
DESCASC
Precipitaciones de 18:00 a 24:00 en mm
DESCASC

Gráficas

Temp. máximas Temp. mínimas Temp. medias Precipitaciones Rachas de viento máximas Velocidades máximas media en intervalos de 10 minutos

Datos horarios

Fecha y hora oficial Temperatura (ºC) Velocidad del viento (km/h) Dirección del viento Racha (km/h) Dirección de racha Precipitación (mm) Presión (hPa) Tendencia (hPa) Humedad (%)
2019-08-24 23:00:00 -- 7 Este 13 Este 0 -- -- --
2019-08-24 22:00:00 -- 5 Este 12 Sudeste 0 -- -- --
2019-08-24 21:00:00 -- 7 Este 12 Este 0 -- -- --
2019-08-24 20:00:00 -- 6 Este 12 Este 0 -- -- --
2019-08-24 19:00:00 -- 6 Este 16 Este 0 -- -- --
2019-08-24 18:00:00 -- 7 Sudeste 19 Sudeste 0 -- -- --
2019-08-24 17:00:00 -- 11 Sudeste 20 Sudeste 0 -- -- --
2019-08-24 16:00:00 -- 11 Sudeste 22 Este 0 -- -- --
2019-08-24 15:00:00 -- 13 Este 28 Sudeste 0 -- -- --
2019-08-24 14:00:00 -- 13 Este 23 Sudeste 0 -- -- --
2019-08-24 13:00:00 -- 11 Este 22 Sudeste 0 -- -- --
2019-08-24 12:00:00 -- 14 Este 23 Sudeste 0 -- -- --
2019-08-24 11:00:00 -- 13 Este 19 Este 0 -- -- --
2019-08-24 10:00:00 -- 9 Este 16 Nordeste 0 -- -- --
2019-08-24 09:00:00 -- 2 Nordeste 7 Este 0 -- -- --
2019-08-24 08:00:00 -- 4 Sur 8 Sur 0 -- -- --
2019-08-24 07:00:00 -- 2 Oeste 6 Oeste 0 -- -- --
2019-08-24 06:00:00 -- 4 Oeste 8 Sur 0 -- -- --
2019-08-24 05:00:00 -- 5 Sur 6 Sur 0 -- -- --
2019-08-24 04:00:00 -- 3 Sur 6 Sur 0 -- -- --
2019-08-24 03:00:00 -- 6 Sudoeste 9 Sudoeste 0 -- -- --
2019-08-24 02:00:00 -- 2 Sudeste 11 Este 0 -- -- --
2019-08-24 01:00:00 -- 0 Calma 6 Oeste 0 -- -- --
2019-08-24 00:00:00 -- 3 Sudeste 7 Sudeste 0 -- -- --
2019-08-23 23:00:00 -- 3 Sudeste 6 Sudeste 0 -- -- --
2019-08-23 22:00:00 -- 2 Sudeste 9 Sudeste 0 -- -- --
2019-08-23 21:00:00 -- 4 Sudeste 13 Sudeste 0 -- -- --
2019-08-23 20:00:00 -- 4 Este 15 Sudeste 0 -- -- --
2019-08-23 19:00:00 -- 7 Este 19 Sudeste 0 -- -- --
2019-08-23 18:00:00 -- 10 Este 24 Este 0 -- -- --
2019-08-23 17:00:00 -- 13 Este 29 Este 0 -- -- --
2019-08-23 16:00:00 -- 18 Sudeste 28 Este 0 -- -- --
2019-08-23 15:00:00 -- 13 Sudeste 25 Sudeste 0 -- -- --
2019-08-23 14:00:00 -- 15 Sudeste 30 Este 0 -- -- --
2019-08-23 13:00:00 -- 17 Este 27 Sudeste 0 -- -- --
2019-08-23 12:00:00 -- 12 Este 22 Sudeste 0 -- -- --
2019-08-23 11:00:00 -- 10 Sudeste 25 Sudeste 0 -- -- --
2019-08-23 10:00:00 -- 7 Este 14 Sudeste 0 -- -- --
2019-08-23 09:00:00 -- 4 Este 10 Este 0 -- -- --
2019-08-23 08:00:00 -- 4 Sudoeste 8 Oeste 0 -- -- --
2019-08-23 07:00:00 -- 4 Sur 9 Sudoeste 0 -- -- --
2019-08-23 06:00:00 -- 5 Sur 9 Sudoeste 0 -- -- --
2019-08-23 05:00:00 -- 5 Sur 8 Sur 0 -- -- --
2019-08-23 04:00:00 -- 5 Sur 9 Sudoeste 0 -- -- --
2019-08-23 03:00:00 -- 5 Sur 11 Sudoeste 0 -- -- --
2019-08-23 02:00:00 -- 2 Sur 14 Oeste 0 -- -- --
2019-08-23 01:00:00 -- 7 Oeste 9 Oeste 0 -- -- --
2019-08-23 00:00:00 -- 4 Sur 13 Sudeste 0 -- -- --
2019-08-22 23:00:00 -- 3 Sur 5 Este 0 -- -- --
2019-08-22 22:00:00 -- 2 Sudeste 12 Sudeste 0 -- -- --
2019-08-22 21:00:00 -- 5 Sudeste 15 Sudeste 0 -- -- --
2019-08-22 20:00:00 -- 10 Sudeste 19 Sudeste 0 -- -- --
2019-08-22 19:00:00 -- 13 Este 20 Este 0 -- -- --
2019-08-22 18:00:00 -- 12 Este 22 Este 0 -- -- --
2019-08-22 17:00:00 -- 14 Este 27 Este 0 -- -- --
2019-08-22 16:00:00 -- 13 Este 26 Este 0 -- -- --
2019-08-22 15:00:00 -- 17 Este 25 Nordeste 0 -- -- --
2019-08-22 14:00:00 -- 17 Este 28 Este 0 -- -- --
2019-08-22 13:00:00 -- 15 Este 26 Este 0 -- -- --
2019-08-22 12:00:00 -- 12 Este 22 Este 0 -- -- --
2019-08-22 11:00:00 -- 14 Este 22 Este 0 -- -- --
2019-08-22 10:00:00 -- 9 Este 15 Sudeste 0 -- -- --
2019-08-22 09:00:00 -- 4 Nordeste 6 Este 0 -- -- --
2019-08-22 08:00:00 -- 3 Sudoeste 5 Sudoeste 0 -- -- --
2019-08-22 07:00:00 -- 4 Sur 9 Sur 0 -- -- --
2019-08-22 06:00:00 -- 6 Sur 10 Oeste 0 -- -- --
2019-08-22 05:00:00 -- 0 Calma 5 Nordeste 0 -- -- --
2019-08-22 04:00:00 -- 2 Sudeste 8 Sudeste 0 -- -- --
2019-08-22 03:00:00 -- 4 Oeste 10 Sudeste 0.2 -- -- --
2019-08-22 02:00:00 -- 5 Sudeste 12 Sudeste 0 -- -- --
2019-08-22 01:00:00 -- 4 Sudeste 8 Sudeste 0 -- -- --
2019-08-22 00:00:00 -- 0 Calma 10 Sudeste 0 -- -- --
2019-08-21 23:00:00 -- 6 Sudeste 13 Sudeste 0 -- -- --
2019-08-21 22:00:00 -- 8 Sudeste 12 Sudeste 0 -- -- --
2019-08-21 21:00:00 -- 5 Sudeste 10 Sudeste 0 -- -- --
2019-08-21 20:00:00 -- 6 Sudeste 11 Este 0 -- -- --
2019-08-21 19:00:00 -- 8 Sudeste 13 Sudeste 0 -- -- --
2019-08-21 18:00:00 -- 6 Este 15 Este 0 -- -- --
2019-08-21 17:00:00 -- 9 Este 19 Este 0 -- -- --
2019-08-21 16:00:00 -- 10 Este 23 Sudeste 0 -- -- --
2019-08-21 15:00:00 -- 11 Este 27 Sudeste 0 -- -- --
2019-08-21 14:00:00 -- 14 Sudeste 30 Sudeste 0 -- -- --
2019-08-21 13:00:00 -- 15 Este 26 Este 0 -- -- --
2019-08-21 12:00:00 -- 14 Sudeste 23 Sudeste 0 -- -- --
2019-08-21 11:00:00 -- 10 Sudeste 20 Sudeste 0 -- -- --
2019-08-21 10:00:00 -- 4 Este 17 Sudoeste 0 -- -- --
2019-08-21 09:00:00 -- 5 Sudeste 14 Sur 0 -- -- --
2019-08-21 08:00:00 -- 5 Oeste 13 Oeste 0 -- -- --
2019-08-21 07:00:00 -- 10 Sudoeste 19 Sudoeste 0 -- -- --
2019-08-21 06:00:00 -- 5 Sudoeste 8 Sur 0 -- -- --
2019-08-21 05:00:00 -- 0 Calma 8 Sur 0 -- -- --
2019-08-21 04:00:00 -- 5 Sudeste 13 Sudeste 0 -- -- --
2019-08-21 03:00:00 -- 5 Sudeste 11 Este 0 -- -- --
2019-08-21 02:00:00 -- 0 Calma 7 Sudeste 0 -- -- --
2019-08-21 01:00:00 -- 0 Calma 4 Sudoeste 0 -- -- --
2019-08-21 00:00:00 -- 0 Calma 15 Sudeste 0 -- -- --
2019-08-20 23:00:00 -- 9 Sudeste 14 Sudeste 0 -- -- --
2019-08-20 22:00:00 -- 3 Sur 9 Sudeste 0 -- -- --
2019-08-20 21:00:00 -- 4 Sudeste 9 Sudeste 0 -- -- --
2019-08-20 20:00:00 -- 8 Sudeste 11 Sudeste 0 -- -- --
2019-08-20 19:00:00 -- 6 Este 17 Este 0 -- -- --
2019-08-20 18:00:00 -- 11 Este 20 Sudeste 0 -- -- --
2019-08-20 17:00:00 -- 9 Sudeste 20 Sudeste 0 -- -- --
2019-08-20 16:00:00 -- 10 Sudeste 24 Este 0 -- -- --
2019-08-20 15:00:00 -- 14 Sudeste 24 Sudeste 0 -- -- --
2019-08-20 14:00:00 -- 12 Este 25 Sudeste 0 -- -- --
2019-08-20 13:00:00 -- 12 Sudeste 19 Sudeste 0 -- -- --
2019-08-20 12:00:00 -- 11 Este 22 Este 0 -- -- --
2019-08-20 11:00:00 -- 12 Este 20 Este 0 -- -- --
2019-08-20 10:00:00 -- 11 Este 18 Nordeste 0 -- -- --
2019-08-20 09:00:00 -- 5 Este 10 Este 0 -- -- --
2019-08-20 08:00:00 -- 3 Sudeste 12 Sudeste 0 -- -- --
2019-08-20 07:00:00 -- 2 Sur 11 Sudeste 0 -- -- --
2019-08-20 06:00:00 -- 2 Sur 6 Sur 0 -- -- --
2019-08-20 05:00:00 -- 4 Oeste 13 Oeste 0 -- -- --
2019-08-20 04:00:00 -- 3 Oeste 10 Sudeste 0 -- -- --
2019-08-20 03:00:00 -- 8 Sudeste 14 Este 0 -- -- --
2019-08-20 02:00:00 -- 6 Sudeste 15 Este 0 -- -- --
2019-08-20 01:00:00 -- 4 Sur 12 Sur 0 -- -- --
2019-08-20 00:00:00 -- 3 Sudeste 13 Sudeste 0 -- -- --
2019-08-19 23:00:00 -- 3 Noroeste 8 Noroeste 0 -- -- --
2019-08-19 22:00:00 -- 0 Calma 9 Sudoeste 0 -- -- --
2019-08-19 21:00:00 -- 2 Noroeste 7 Noroeste 0 -- -- --
2019-08-19 20:00:00 -- 3 Sudoeste 11 Sudeste 0 -- -- --
2019-08-19 19:00:00 -- 3 Sudeste 9 Sudeste 0 -- -- --
2019-08-19 18:00:00 -- 3 Sudeste 12 Nordeste 0 -- -- --
2019-08-19 17:00:00 -- 7 Nordeste 16 Este 0 -- -- --
2019-08-19 16:00:00 -- 8 Este 17 Este 0 -- -- --
2019-08-19 15:00:00 -- 11 Este 17 Sudeste 0 -- -- --
2019-08-19 14:00:00 -- 4 Sudeste 16 Este 0 -- -- --
2019-08-19 13:00:00 -- 8 Sudeste 16 Este 0 -- -- --
2019-08-19 12:00:00 -- 6 Este 13 Este 0 -- -- --
2019-08-19 11:00:00 -- 10 Sudeste 16 Sudeste 0 -- -- --
2019-08-19 10:00:00 -- 4 Este 8 Este 0 -- -- --
2019-08-19 09:00:00 -- 4 Sudeste 13 Sudeste 0 -- -- --
2019-08-19 08:00:00 -- 2 Sudoeste 10 Sudeste 0 -- -- --
2019-08-19 07:00:00 -- 5 Sur 7 Sur 0 -- -- --
2019-08-19 06:00:00 -- 3 Sur 6 Sudoeste 0 -- -- --
2019-08-19 05:00:00 -- 3 Oeste 6 Sudeste 0 -- -- --
2019-08-19 04:00:00 -- 0 Calma 7 Sur 0 -- -- --
2019-08-19 03:00:00 -- 6 Sur 10 Sur 0 -- -- --
2019-08-19 02:00:00 -- 5 Sur 9 Sudeste 0 -- -- --
2019-08-19 01:00:00 -- 4 Sudeste 9 Sur 0 -- -- --
2019-08-19 00:00:00 -- 3 Sudeste 9 Sur 0 -- -- --
2019-08-18 23:00:00 -- 7 Sur 12 Sur 0 -- -- --
2019-08-18 22:00:00 -- 2 Sur 12 Oeste 0 -- -- --
2019-08-18 21:00:00 -- 3 Sudoeste 9 Noroeste 0 -- -- --
2019-08-18 20:00:00 -- 3 Oeste 8 Sudeste 0 -- -- --
2019-08-18 19:00:00 -- 5 Sudeste 18 Sudeste 0 -- -- --
2019-08-18 18:00:00 -- 13 Sudeste 19 Sudeste 0 -- -- --
2019-08-18 17:00:00 -- 7 Este 13 Sudeste 0 -- -- --
2019-08-18 16:00:00 -- 5 Este 14 Nordeste 0 -- -- --
2019-08-18 15:00:00 -- 5 Nordeste 14 Este 0 -- -- --
2019-08-18 14:00:00 -- 6 Nordeste 16 Este 0 -- -- --
2019-08-18 13:00:00 -- 9 Este 15 Este 0 -- -- --
2019-08-18 12:00:00 -- 8 Este 14 Este 0 -- -- --
2019-08-18 11:00:00 -- 7 Este 12 Este 0 -- -- --
2019-08-18 10:00:00 -- 7 Sudeste 12 Este 0 -- -- --
2019-08-18 09:00:00 -- 6 Sudeste 9 Sudeste 0 -- -- --
2019-08-18 08:00:00 -- 7 Noroeste 10 Sur 0 -- -- --
2019-08-18 07:00:00 -- 6 Sur 12 Oeste 0 -- -- --
2019-08-18 06:00:00 -- 3 Sur 9 Sudoeste 0 -- -- --
2019-08-18 05:00:00 -- 3 Oeste 5 Sur 0 -- -- --
2019-08-18 04:00:00 -- 3 Oeste 5 Sudoeste 0 -- -- --
2019-08-18 03:00:00 -- 4 Oeste 12 Oeste 0 -- -- --
2019-08-18 02:00:00 -- 4 Sudoeste 5 Sudoeste 0 -- -- --
2019-08-18 01:00:00 -- 0 Calma 6 Noroeste 0 -- -- --
2019-08-18 00:00:00 -- 0 Calma 5 Oeste 0 -- -- --
2019-08-17 23:00:00 -- 0 Calma 9 Sur 0 -- -- --
2019-08-17 22:00:00 -- 4 Oeste 7 Sudeste 0 -- -- --
2019-08-17 21:00:00 -- 4 Sudeste 11 Oeste 0 -- -- --
2019-08-17 20:00:00 -- 3 Nordeste 8 Nordeste 0 -- -- --
2019-08-17 19:00:00 -- 3 Este 10 Este 0 -- -- --
2019-08-17 18:00:00 -- 7 Sudeste 13 Sudeste 0 -- -- --
2019-08-17 17:00:00 -- 9 Sudeste 18 Sudeste 0 -- -- --
2019-08-17 16:00:00 -- 12 Sudeste 18 Sudeste 0 -- -- --
2019-08-17 15:00:00 -- 11 Este 18 Sudeste 0 -- -- --
2019-08-17 14:00:00 -- 12 Sudeste 18 Sudeste 0 -- -- --
2019-08-17 13:00:00 -- 10 Sudeste 15 Sudeste 0 -- -- --
2019-08-17 12:00:00 -- 10 Sudeste 18 Sudeste 0 -- -- --
2019-08-17 11:00:00 -- 4 Sudeste 16 Este 0 -- -- --
2019-08-17 10:00:00 -- 6 Este 11 Este 0 -- -- --
2019-08-17 09:00:00 -- 3 Norte 8 Sudeste 0 -- -- --
2019-08-17 08:00:00 -- 0 Calma 7 Oeste 0 -- -- --
2019-08-17 07:00:00 -- 3 Oeste 6 Oeste 0 -- -- --
2019-08-17 06:00:00 -- 0 Calma 5 Oeste 0 -- -- --
2019-08-17 05:00:00 -- 4 Sudeste 6 Sur 0 -- -- --
2019-08-17 04:00:00 -- 0 Calma -- -- 0 -- -- --
2019-08-17 03:00:00 -- 0 Calma -- -- 0 -- -- --
2019-08-17 02:00:00 -- 0 Calma 5 Oeste 0 -- -- --
2019-08-17 01:00:00 -- 4 Oeste 5 Oeste 0 -- -- --
2019-08-17 00:00:00 -- 2 Sur 5 Oeste 0 -- -- --
2019-08-16 23:00:00 -- 2 Oeste 4 Noroeste 0 -- -- --
2019-08-16 22:00:00 -- 0 Calma 3 Oeste 0 -- -- --
2019-08-16 21:00:00 -- 2 Sudeste 7 Sudeste 0 -- -- --
2019-08-16 20:00:00 -- 3 Sudeste 10 Este 0 -- -- --
2019-08-16 19:00:00 -- 8 Sudeste 15 Este 0 -- -- --
2019-08-16 18:00:00 -- 11 Sudeste 18 Sudeste 0 -- -- --
2019-08-16 17:00:00 -- 10 Sudeste 18 Sudeste 0 -- -- --
2019-08-16 16:00:00 -- 13 Sudeste 21 Sudeste 0 -- -- --
2019-08-16 15:00:00 -- 12 Este 21 Este 0 -- -- --
2019-08-16 14:00:00 -- 10 Sudeste 19 Este 0 -- -- --
2019-08-16 13:00:00 -- 11 Este 18 Este 0 -- -- --
2019-08-16 12:00:00 -- 11 Este 18 Nordeste 0 -- -- --
2019-08-16 11:00:00 -- 7 Este 13 Este 0 -- -- --
2019-08-16 10:00:00 -- 4 Este 9 Nordeste 0 -- -- --
2019-08-16 09:00:00 -- 4 Este 8 Sudeste 0 -- -- --
2019-08-16 08:00:00 -- 4 Sudoeste 9 Oeste 0 -- -- --
2019-08-16 07:00:00 -- 0 Calma 4 Oeste 0 -- -- --
2019-08-16 06:00:00 -- 0 Calma 4 Sur 0 -- -- --
2019-08-16 05:00:00 -- 3 Sur 5 Sudeste 0 -- -- --
2019-08-16 04:00:00 -- 3 Oeste 4 Sudoeste 0 -- -- --
2019-08-16 03:00:00 -- 4 Oeste 5 Sur 0 -- -- --
2019-08-16 02:00:00 -- 0 Calma 8 Oeste 0 -- -- --
2019-08-16 01:00:00 -- 0 Calma 7 Sudeste 0 -- -- --
2019-08-16 00:00:00 -- 0 Calma 4 Este 0 -- -- --
2019-08-15 23:00:00 -- 2 Noroeste 5 Oeste 0 -- -- --
2019-08-15 22:00:00 -- 3 Oeste 8 Oeste 0 -- -- --
2019-08-15 21:00:00 -- 0 Calma 5 Sudoeste 0 -- -- --
2019-08-15 20:00:00 -- 0 Calma 5 Este 0 -- -- --
2019-08-15 19:00:00 -- 3 Sudeste 10 Sudeste 0 -- -- --
2019-08-15 18:00:00 -- 6 Sudeste 14 Este 0 -- -- --
2019-08-15 17:00:00 -- 8 Sudeste 18 Sudeste 0 -- -- --
2019-08-15 16:00:00 -- 10 Este 17 Este 0 -- -- --
2019-08-15 15:00:00 -- 10 Sudeste 19 Este 0 -- -- --
2019-08-15 14:00:00 -- 13 Sudeste 20 Sudeste 0 -- -- --
2019-08-15 13:00:00 -- 10 Sudeste 20 Sudeste 0 -- -- --
2019-08-15 12:00:00 -- 10 Sudeste 17 Este 0 -- -- --
2019-08-15 11:00:00 -- 11 Sudeste 15 Sudeste 0 -- -- --
2019-08-15 10:00:00 -- 4 Este 9 Este 0 -- -- --
2019-08-15 09:00:00 -- 0 Calma 5 Este 0 -- -- --
2019-08-15 08:00:00 -- 0 Calma 3 Sur 0 -- -- --
2019-08-15 07:00:00 -- 0 Calma 4 Oeste 0 -- -- --
2019-08-15 06:00:00 -- 0 Calma 2 Sudeste 0 -- -- --
2019-08-15 05:00:00 -- 0 Calma 5 Oeste 0 -- -- --
2019-08-15 04:00:00 -- 6 Oeste 8 Oeste 0 -- -- --
2019-08-15 03:00:00 -- 0 Calma -- -- 0 -- -- --
2019-08-15 02:00:00 -- 0 Calma -- -- 0 -- -- --
2019-08-15 01:00:00 -- 0 Calma -- -- 0 -- -- --
2019-08-15 00:00:00 -- 2 Noroeste 6 Oeste 0 -- -- --
2019-08-14 23:00:00 -- 0 Calma 3 Sudeste 0 -- -- --
2019-08-14 22:00:00 -- 0 Calma 6 Oeste 0 -- -- --
2019-08-14 21:00:00 -- 0 Calma 7 Sudeste 0 -- -- --
2019-08-14 20:00:00 -- 4 Sudeste 11 Este 0 -- -- --
2019-08-14 19:00:00 -- 8 Este 15 Sudeste 0 -- -- --
2019-08-14 18:00:00 -- 9 Sudeste 19 Sudeste 0 -- -- --
2019-08-14 17:00:00 -- 12 Sudeste 25 Sudeste 0 -- -- --
2019-08-14 16:00:00 -- 15 Sudeste 22 Sudeste 0 -- -- --
2019-08-14 15:00:00 -- 10 Este 18 Sudeste 0 -- -- --
2019-08-14 14:00:00 -- 12 Sudeste 21 Este 0 -- -- --
2019-08-14 13:00:00 -- 13 Sudeste 22 Sudeste 0 -- -- --
2019-08-14 12:00:00 -- 12 Este 20 Sudeste 0 -- -- --
2019-08-14 11:00:00 -- 10 Este 17 Sudeste 0 -- -- --
2019-08-14 10:00:00 -- 9 Este 14 Este 0 -- -- --
2019-08-14 09:00:00 -- 5 Este 10 Este 0 -- -- --
2019-08-14 08:00:00 -- 0 Calma 5 Noroeste 0 -- -- --
2019-08-14 07:00:00 -- 0 Calma 6 Este 0 -- -- --
2019-08-14 06:00:00 -- 5 Sudeste 10 Sur 0.2 -- -- --
2019-08-14 05:00:00 -- 4 Sudeste 11 Sudeste 0 -- -- --
2019-08-14 04:00:00 -- 5 Sudeste 13 Sur 0 -- -- --
2019-08-14 03:00:00 -- 8 Este 15 Sudeste 0 -- -- --
2019-08-14 02:00:00 -- 8 Este 17 Sudeste 0 -- -- --
2019-08-14 01:00:00 -- 7 Sudeste 18 Sudeste 0 -- -- --
2019-08-14 00:00:00 -- 8 Sudeste 15 Sudeste 0 -- -- --
2019-08-13 23:00:00 -- 10 Este 16 Este 0 -- -- --
2019-08-13 22:00:00 -- 10 Este 15 Este 0 -- -- --
2019-08-13 21:00:00 -- 7 Este 12 Este 0 -- -- --
2019-08-13 20:00:00 -- 4 Este 12 Nordeste 0 -- -- --
2019-08-13 19:00:00 -- 4 Este 18 Este 0 -- -- --
2019-08-13 18:00:00 -- 7 Este 20 Sudeste 0 -- -- --
2019-08-13 17:00:00 -- 14 Sudeste 23 Sudeste 0 -- -- --
2019-08-13 16:00:00 -- 12 Sudeste 25 Este 0 -- -- --
2019-08-13 15:00:00 -- 10 Este 21 Este 0 -- -- --
2019-08-13 14:00:00 -- 10 Sudeste 21 Este 0 -- -- --
2019-08-13 13:00:00 -- 12 Sudeste 25 Sudeste 0 -- -- --
2019-08-13 12:00:00 -- 14 Sudeste 24 Sudeste 0 -- -- --
2019-08-13 11:00:00 -- 12 Sudeste 20 Este 0 -- -- --
2019-08-13 10:00:00 -- 3 Nordeste 10 Norte 0 -- -- --
2019-08-13 09:00:00 -- 4 Noroeste 7 Noroeste 0 -- -- --
2019-08-13 08:00:00 -- 0 Calma 4 Oeste 0 -- -- --
2019-08-13 07:00:00 -- 0 Calma 4 Sudoeste 0 -- -- --
2019-08-13 06:00:00 -- 4 Sudoeste 9 Sudoeste 0 -- -- --
2019-08-13 05:00:00 -- 5 Sudoeste 10 Oeste 0 -- -- --
2019-08-13 04:00:00 -- 6 Sur 9 Sur 0 -- -- --
2019-08-13 03:00:00 -- 2 Sudeste 5 Oeste 0 -- -- --
2019-08-13 02:00:00 -- 2 Noroeste 9 Este 0 -- -- --
2019-08-13 01:00:00 -- 5 Este 16 Este 0 -- -- --
2019-08-13 00:00:00 -- 8 Este 15 Sudeste 0 -- -- --
2019-08-12 23:00:00 -- 4 Sudeste 15 Sudeste 0 -- -- --
2019-08-12 22:00:00 -- 6 Sudeste 14 Sudeste 0 -- -- --
2019-08-12 21:00:00 -- 6 Sudeste 14 Sudeste 0 -- -- --
2019-08-12 20:00:00 -- 4 Sur 15 Este 0 -- -- --
2019-08-12 19:00:00 -- 8 Este 16 Sudeste 0 -- -- --
2019-08-12 18:00:00 -- 6 Este 19 Este 0 -- -- --
2019-08-12 17:00:00 -- 10 Sudeste 18 Este 0 -- -- --
2019-08-12 16:00:00 -- 6 Sudeste 13 Este 0 -- -- --
2019-08-12 15:00:00 -- 6 Sudeste 14 Este 0 -- -- --
2019-08-12 14:00:00 -- 7 Este 14 Sudeste 0 -- -- --
2019-08-12 13:00:00 -- 5 Sudeste 15 Este 0 -- -- --
2019-08-12 12:00:00 -- 5 Sudeste 17 Sudeste 0 -- -- --
2019-08-12 11:00:00 -- 12 Sudeste 17 Sudeste 0 -- -- --
2019-08-12 10:00:00 -- 10 Sudeste 17 Sudeste 0 -- -- --
2019-08-12 09:00:00 -- 2 Norte 15 Noroeste 0 -- -- --
2019-08-12 08:00:00 -- 11 Oeste 14 Oeste 0 -- -- --
2019-08-12 07:00:00 -- 0 Calma 9 Sudoeste 0 -- -- --
2019-08-12 06:00:00 -- 0 Calma 9 Oeste 0 -- -- --
2019-08-12 05:00:00 -- 2 Oeste 6 Noroeste 0 -- -- --
2019-08-12 04:00:00 -- 4 Sur 8 Sudeste 0 -- -- --
2019-08-12 03:00:00 -- 3 Sur 14 Sur 0 -- -- --
2019-08-12 02:00:00 -- 4 Sudeste 16 Oeste 0 -- -- --
2019-08-12 01:00:00 -- 3 Noroeste 12 Noroeste 0 -- -- --
2019-08-12 00:00:00 -- 7 Sur 15 Sudeste 0 -- -- --
2019-08-11 23:00:00 -- 2 Sudeste 23 Noroeste 0 -- -- --
2019-08-11 22:00:00 -- 3 Noroeste 24 Oeste 0 -- -- --
2019-08-11 21:00:00 -- 0 Calma 13 Sudeste 0 -- -- --
2019-08-11 20:00:00 -- 5 Este 11 Este 0 -- -- --
2019-08-11 19:00:00 -- 4 Este 9 Este 0 -- -- --
2019-08-11 18:00:00 -- 3 Sudeste 13 Sudeste 0 -- -- --
2019-08-11 17:00:00 -- 10 Este 22 Sudeste 0 -- -- --
2019-08-11 16:00:00 -- 17 Sudeste 28 Sudeste 0 -- -- --
2019-08-11 15:00:00 -- 13 Sudeste 22 Sudeste 0 -- -- --
2019-08-11 14:00:00 -- 8 Este 14 Este 0 -- -- --
2019-08-11 13:00:00 -- 5 Este 16 Sudeste 0 -- -- --
2019-08-11 12:00:00 -- 9 Este 20 Este 0 -- -- --
2019-08-11 11:00:00 -- 14 Sudeste 22 Sudeste 0 -- -- --
2019-08-11 10:00:00 -- 14 Sudeste 29 Sudeste 0 -- -- --
2019-08-11 09:00:00 -- 21 Sur 33 Sur 0 -- -- --
2019-08-11 08:00:00 -- 7 Sudoeste 12 Sudoeste 0 -- -- --
2019-08-11 07:00:00 -- 0 Calma 5 Oeste 0 -- -- --
2019-08-11 06:00:00 -- 2 Noroeste 7 Oeste 0 -- -- --
2019-08-11 05:00:00 -- 0 Calma 9 Oeste 0 -- -- --
2019-08-11 04:00:00 -- 5 Oeste 11 Sudeste 0 -- -- --
2019-08-11 03:00:00 -- 10 Oeste 17 Oeste 0 -- -- --
2019-08-11 02:00:00 -- 5 Noroeste 14 Noroeste 0 -- -- --
2019-08-11 01:00:00 -- 6 Noroeste 18 Oeste 0 -- -- --
2019-08-11 00:00:00 -- 6 Sudeste 17 Sudeste 0 -- -- --
2019-08-10 23:00:00 -- 4 Sur 17 Sur 0 -- -- --
2019-08-10 22:00:00 -- 2 Noroeste 11 Sudeste 0 -- -- --
2019-08-10 21:00:00 -- 5 Sur 8 Sur 0 -- -- --
2019-08-10 20:00:00 -- 2 Este 8 Este 0 -- -- --
2019-08-10 19:00:00 -- 4 Este 9 Nordeste 0 -- -- --
2019-08-10 18:00:00 -- 4 Este 19 Noroeste 0 -- -- --
2019-08-10 17:00:00 -- 12 Noroeste 26 Oeste 0 -- -- --
2019-08-10 16:00:00 -- 7 Nordeste 15 Nordeste 0 -- -- --
2019-08-10 15:00:00 -- 7 Sudeste 11 Sudeste 0 -- -- --
2019-08-10 14:00:00 -- 6 Este 12 Este 0 -- -- --
2019-08-10 13:00:00 -- 5 Este 16 Este 0 -- -- --
2019-08-10 12:00:00 -- 12 Sudeste 18 Sudeste 0 -- -- --
2019-08-10 11:00:00 -- 8 Sudeste 19 Sudeste 0 -- -- --
2019-08-10 10:00:00 -- 12 Sudeste 19 Sudeste 0 -- -- --
2019-08-10 09:00:00 -- 5 Sudeste 9 Sudeste 0 -- -- --
2019-08-10 08:00:00 -- 3 Sudeste 11 Sudeste 0 -- -- --
2019-08-10 07:00:00 -- 4 Sur 15 Noroeste 0 -- -- --
2019-08-10 06:00:00 -- 2 Este 15 Oeste 0 -- -- --
2019-08-10 05:00:00 -- 2 Sudeste 10 Este 0 -- -- --
2019-08-10 04:00:00 -- 2 Sudeste 6 Sudeste 0 -- -- --
2019-08-10 03:00:00 -- 4 Oeste 10 Oeste 0 -- -- --
2019-08-10 02:00:00 -- 2 Sur 10 Sudeste 0 -- -- --
2019-08-10 01:00:00 -- 5 Este 13 Oeste 0 -- -- --
2019-08-10 00:00:00 -- 4 Sur 9 Sur 0 -- -- --
2019-08-09 23:00:00 -- 3 Sur 19 Noroeste 0 -- -- --
2019-08-09 22:00:00 -- 9 Sur 37 Oeste 0 -- -- --
2019-08-09 21:00:00 -- 9 Noroeste 36 Oeste 0 -- -- --
2019-08-09 20:00:00 -- 6 Nordeste 31 Oeste 0 -- -- --
2019-08-09 19:00:00 -- 13 Noroeste 33 Oeste 0 -- -- --
2019-08-09 18:00:00 -- 16 Noroeste 35 Oeste 0 -- -- --
2019-08-09 17:00:00 -- 19 Oeste 37 Oeste 0 -- -- --
2019-08-09 16:00:00 -- 19 Oeste 39 Oeste 0 -- -- --
2019-08-09 15:00:00 -- 14 Noroeste 32 Noroeste 0 -- -- --
2019-08-09 14:00:00 -- 6 Este 19 Este 0 -- -- --
2019-08-09 13:00:00 -- 8 Este 18 Sudeste 0 -- -- --
2019-08-09 12:00:00 -- 10 Sudeste 16 Sudeste 0 -- -- --
2019-08-09 11:00:00 -- 7 Este 13 Sudeste 0 -- -- --
2019-08-09 10:00:00 -- 3 Este 8 Nordeste 0 -- -- --
2019-08-09 09:00:00 -- 0 Calma 5 Sur 0 -- -- --
2019-08-09 08:00:00 -- 3 Oeste 5 Oeste 0 -- -- --
2019-08-09 07:00:00 -- 0 Calma 7 Sudeste 0 -- -- --
2019-08-09 06:00:00 -- 3 Sur 8 Oeste 0 -- -- --
2019-08-09 05:00:00 -- 0 Calma 6 Sudeste 0 -- -- --
2019-08-09 04:00:00 -- 0 Calma 11 Noroeste 0 -- -- --
2019-08-09 03:00:00 -- 5 Oeste 14 Oeste 0 -- -- --
2019-08-09 02:00:00 -- 3 Sudeste 6 Oeste 0 -- -- --
2019-08-09 01:00:00 -- 2 Sur 8 Sudoeste 0 -- -- --
2019-08-09 00:00:00 -- 3 Oeste 8 Oeste 0 -- -- --
2019-08-08 23:00:00 -- 4 Sur 8 Sudeste 0 -- -- --
2019-08-08 22:00:00 -- 3 Sudoeste 9 Sudoeste 0 -- -- --
2019-08-08 21:00:00 -- 2 Sudoeste 5 Sudoeste 0 -- -- --
2019-08-08 20:00:00 -- 3 Sudeste 7 Este 0 -- -- --
2019-08-08 19:00:00 -- 5 Este 12 Sudeste 0 -- -- --
2019-08-08 18:00:00 -- 7 Sudeste 14 Sudeste 0 -- -- --
2019-08-08 17:00:00 -- 9 Sudeste 15 Este 0 -- -- --
2019-08-08 16:00:00 -- 10 Sudeste 18 Este 0 -- -- --
2019-08-08 15:00:00 -- 10 Sudeste 18 Este 0 -- -- --
2019-08-08 14:00:00 -- 9 Este 16 Sudeste 0 -- -- --
2019-08-08 13:00:00 -- 8 Sudeste 15 Sudeste 0 -- -- --
2019-08-08 12:00:00 -- 7 Sudeste 11 Este 0 -- -- --
2019-08-08 11:00:00 -- 6 Este 12 Este 0 -- -- --
2019-08-08 10:00:00 -- 4 Este 7 Noroeste 0 -- -- --
2019-08-08 09:00:00 -- 3 Sudeste 5 Nordeste 0 -- -- --
2019-08-08 08:00:00 -- 4 Sur 8 Oeste 0 -- -- --
2019-08-08 07:00:00 -- 4 Sur 12 Sudeste 0 -- -- --
2019-08-08 06:00:00 -- 4 Sur 19 Sudeste 0 -- -- --
2019-08-08 05:00:00 -- 3 Sudoeste 15 Sur 0 -- -- --
2019-08-08 04:00:00 -- 9 Sudeste 15 Sudeste 0 -- -- --
2019-08-08 03:00:00 -- 4 Sudeste 8 Sudeste 0 -- -- --
2019-08-08 02:00:00 -- 5 Sudeste 10 Sudeste 0 -- -- --
2019-08-08 01:00:00 -- 0 Calma 8 Oeste 0 -- -- --
2019-08-08 00:00:00 -- 3 Noroeste 22 Oeste 0 -- -- --
2019-08-07 23:00:00 -- 14 Oeste 26 Oeste 0 -- -- --
2019-08-07 22:00:00 -- 14 Oeste 24 Oeste 0 -- -- --
2019-08-07 21:00:00 -- 7 Sudeste 30 Noroeste 0 -- -- --
2019-08-07 20:00:00 -- 17 Noroeste 31 Oeste 0 -- -- --
2019-08-07 19:00:00 -- 6 Norte 30 Noroeste 0 -- -- --
2019-08-07 18:00:00 -- 21 Oeste 38 Oeste 0 -- -- --
2019-08-07 17:00:00 -- 17 Noroeste 37 Oeste 0 -- -- --
2019-08-07 16:00:00 -- 21 Oeste 39 Oeste 0 -- -- --
2019-08-07 15:00:00 -- 22 Oeste 37 Oeste 0 -- -- --
2019-08-07 14:00:00 -- 21 Oeste 36 Oeste 0 -- -- --
2019-08-07 13:00:00 -- 20 Oeste 30 Oeste 0 -- -- --
2019-08-07 12:00:00 -- 14 Oeste 24 Oeste 0 -- -- --
2019-08-07 11:00:00 -- 5 Nordeste 10 Noroeste 0 -- -- --
2019-08-07 10:00:00 -- 3 Noroeste 5 Noroeste 0 -- -- --
2019-08-07 09:00:00 -- 3 Sudeste 12 Oeste 0 -- -- --
2019-08-07 08:00:00 -- 10 Oeste 13 Oeste 0 -- -- --
2019-08-07 07:00:00 -- 5 Oeste 9 Oeste 0 -- -- --
2019-08-07 06:00:00 -- 3 Sudoeste 9 Oeste 0 -- -- --
2019-08-07 05:00:00 -- 5 Sudeste 15 Sudeste 0 -- -- --
2019-08-07 04:00:00 -- 7 Sudoeste 17 Sudeste 0 -- -- --
2019-08-07 03:00:00 -- 3 Sur 8 Sur 0 -- -- --
2019-08-07 02:00:00 -- 3 Este 14 Sur 0 -- -- --
2019-08-07 01:00:00 -- 7 Oeste 12 Oeste 0 -- -- --
2019-08-07 00:00:00 -- 5 Oeste 10 Oeste 0 -- -- --
2019-08-06 23:00:00 -- 3 Sudoeste 9 Oeste 0 -- -- --
2019-08-06 22:00:00 -- 2 Oeste 9 Noroeste 0 -- -- --
2019-08-06 21:00:00 -- 3 Sudeste 9 Sudeste 0 -- -- --
2019-08-06 20:00:00 -- 6 Sudeste 13 Sudeste 0 -- -- --
2019-08-06 19:00:00 -- 3 Este 9 Este 0 -- -- --
2019-08-06 18:00:00 -- 7 Sudeste 11 Nordeste 0 -- -- --
2019-08-06 17:00:00 -- 6 Este 17 Este 0 -- -- --
2019-08-06 16:00:00 -- 6 Este 17 Sudeste 0 -- -- --
2019-08-06 15:00:00 -- 8 Sudeste 19 Sudeste 0 -- -- --
2019-08-06 14:00:00 -- 13 Sudeste 19 Sudeste 0 -- -- --
2019-08-06 13:00:00 -- 13 Sudeste 22 Sudeste 0 -- -- --
2019-08-06 12:00:00 -- 5 Este 23 Sudeste 0 -- -- --
2019-08-06 11:00:00 -- 5 Este 13 Sudeste 0 -- -- --
2019-08-06 10:00:00 -- 9 Sudeste 15 Sudeste 0 -- -- --
2019-08-06 09:00:00 -- 8 Oeste 13 Noroeste 0 -- -- --
2019-08-06 08:00:00 -- 2 Sudeste 11 Noroeste 0 -- -- --
2019-08-06 07:00:00 -- 3 Oeste 15 Sudeste 0 -- -- --
2019-08-06 06:00:00 -- 6 Sudoeste 13 Oeste 0 -- -- --
2019-08-06 05:00:00 -- 4 Sur 10 Oeste 0 -- -- --
2019-08-06 04:00:00 -- 3 Oeste 8 Sudeste 0 -- -- --
2019-08-06 03:00:00 -- 5 Noroeste 8 Sudeste 0 -- -- --
2019-08-06 02:00:00 -- 3 Oeste 12 Oeste 0 -- -- --
2019-08-06 01:00:00 -- 4 Sudoeste 12 Sur 0 -- -- --
2019-08-06 00:00:00 -- 0 Calma 15 Sudeste 0 -- -- --
2019-08-05 23:00:00 -- 9 Oeste 15 Sur 0 -- -- --
2019-08-05 22:00:00 -- 10 Sur 21 Sur 0 -- -- --
2019-08-05 21:00:00 -- 9 Sur 16 Sur 0 -- -- --
2019-08-05 20:00:00 -- 4 Sudeste 12 Sudeste 0 -- -- --
2019-08-05 19:00:00 -- 3 Nordeste 10 Nordeste 0 -- -- --
2019-08-05 18:00:00 -- 5 Nordeste 13 Este 0 -- -- --
2019-08-05 17:00:00 -- 9 Este 18 Este 0 -- -- --
2019-08-05 16:00:00 -- 12 Este 18 Este 0 -- -- --
2019-08-05 15:00:00 -- 8 Este 16 Este 0 -- -- --
2019-08-05 14:00:00 -- 7 Este 20 Sudeste 0 -- -- --
2019-08-05 13:00:00 -- 11 Este 21 Sudeste 0 -- -- --
2019-08-05 12:00:00 -- 4 Sudeste 18 Sudeste 0 -- -- --
2019-08-05 11:00:00 -- 7 Este 22 Sudeste 0 -- -- --
2019-08-05 10:00:00 -- 8 Este 16 Sudeste 0 -- -- --
2019-08-05 09:00:00 -- 5 Sudeste 12 Sudeste 0 -- -- --
2019-08-05 08:00:00 -- 5 Sur 20 Sudeste 0 -- -- --
2019-08-05 07:00:00 -- 0 Calma 5 Sudoeste 0 -- -- --
2019-08-05 06:00:00 -- 0 Calma 5 Noroeste 0 -- -- --
2019-08-05 05:00:00 -- 0 Calma 11 Oeste 0 -- -- --
2019-08-05 04:00:00 -- 3 Noroeste 5 Sur 0 -- -- --
2019-08-05 03:00:00 -- 5 Sudeste 8 Noroeste 0 -- -- --
2019-08-05 02:00:00 -- 2 Sudeste 9 Sudoeste 0 -- -- --
2019-08-05 01:00:00 -- 5 Sudeste 14 Sudeste 0 -- -- --
2019-08-05 00:00:00 -- 3 Sur 10 Sur 0 -- -- --
2019-08-04 23:00:00 -- 6 Noroeste 10 Oeste 0 -- -- --
2019-08-04 22:00:00 -- 2 Oeste 7 Oeste 0 -- -- --
2019-08-04 21:00:00 -- 0 Calma 4 Sur 0 -- -- --
2019-08-04 20:00:00 -- 2 Nordeste 8 Nordeste 0 -- -- --
2019-08-04 19:00:00 -- 5 Este 8 Este 0 -- -- --
2019-08-04 18:00:00 -- 4 Este 11 Este 0 -- -- --
2019-08-04 17:00:00 -- 8 Sudeste 19 Este 0 -- -- --
2019-08-04 16:00:00 -- 13 Este 23 Este 0 -- -- --
2019-08-04 15:00:00 -- 10 Este 20 Este 0 -- -- --
2019-08-04 14:00:00 -- 12 Este 19 Sudeste 0 -- -- --
2019-08-04 13:00:00 -- 11 Este 19 Este 0 -- -- --
2019-08-04 12:00:00 -- 10 Este 17 Sudeste 0 -- -- --
2019-08-04 11:00:00 -- 9 Sudeste 18 Sudeste 0 -- -- --
2019-08-04 10:00:00 -- 15 Sudeste 22 Sudeste 0 -- -- --
2019-08-04 09:00:00 -- 6 Sudeste 13 Sudeste 0 -- -- --
2019-08-04 08:00:00 -- 8 Sur 11 Sur 0 -- -- --
2019-08-04 07:00:00 -- 6 Sur 12 Sudeste 0 -- -- --
2019-08-04 06:00:00 -- 6 Sudoeste 9 Oeste 0 -- -- --
2019-08-04 05:00:00 -- 6 Oeste 15 Oeste 0 -- -- --
2019-08-04 04:00:00 -- 8 Oeste 13 Oeste 0 -- -- --
2019-08-04 03:00:00 -- 3 Noroeste 12 Oeste 0 -- -- --
2019-08-04 02:00:00 -- 7 Oeste 11 Oeste 0 -- -- --
2019-08-04 01:00:00 -- 4 Oeste 9 Oeste 0 -- -- --
2019-08-04 00:00:00 -- 4 Sur 12 Sudeste 0 -- -- --
2019-08-03 23:00:00 -- 3 Oeste 5 Oeste 0 -- -- --
2019-08-03 22:00:00 -- 3 Oeste 5 Norte 0 -- -- --
2019-08-03 21:00:00 -- 0 Calma 10 Nordeste 0 -- -- --
2019-08-03 20:00:00 -- 4 Sudeste 14 Oeste 0 -- -- --
2019-08-03 19:00:00 -- 9 Sudeste 20 Sur 0 -- -- --
2019-08-03 18:00:00 -- 10 Sudeste 24 Sudeste 0 -- -- --
2019-08-03 17:00:00 -- 12 Sudeste 22 Sudeste 0 -- -- --
2019-08-03 16:00:00 -- 15 Sudeste 25 Sudeste 0 -- -- --
2019-08-03 15:00:00 -- 16 Sudeste 27 Sudeste 0 -- -- --
2019-08-03 14:00:00 -- 17 Sudeste 25 Sudeste 0 -- -- --
2019-08-03 13:00:00 -- 13 Sudeste 21 Sudeste 0 -- -- --
2019-08-03 12:00:00 -- 6 Este 17 Sudeste 0 -- -- --
2019-08-03 11:00:00 -- 11 Sudeste 17 Este 0 -- -- --
2019-08-03 10:00:00 -- 4 Nordeste 14 Sudeste 0 -- -- --
2019-08-03 09:00:00 -- 11 Sudeste 15 Sur 0 -- -- --
2019-08-03 08:00:00 -- 7 Oeste 9 Oeste 0 -- -- --
2019-08-03 07:00:00 -- 4 Oeste 5 Oeste 0 -- -- --
2019-08-03 06:00:00 -- 0 Calma 7 Sudeste 0 -- -- --
2019-08-03 05:00:00 -- 6 Sudoeste 10 Oeste 0 -- -- --
2019-08-03 04:00:00 -- 3 Sur 7 Oeste 0 -- -- --
2019-08-03 03:00:00 -- 2 Sur 9 Sudeste 0 -- -- --
2019-08-03 02:00:00 -- 5 Sur 6 Sur 0 -- -- --
2019-08-03 01:00:00 -- 5 Noroeste 6 Noroeste 0 -- -- --
2019-08-03 00:00:00 -- 4 Oeste 8 Sudeste 0 -- -- --
2019-08-02 23:00:00 -- 3 Sudoeste 9 Sudeste 0 -- -- --
2019-08-02 22:00:00 -- 2 Sudeste 6 Sur 0 -- -- --
2019-08-02 21:00:00 -- 0 Calma 6 Este 0 -- -- --
2019-08-02 20:00:00 -- 3 Este 8 Nordeste 0 -- -- --
2019-08-02 19:00:00 -- 4 Nordeste 15 Este 0 -- -- --
2019-08-02 18:00:00 -- 10 Este 15 Sudeste 0 -- -- --
2019-08-02 17:00:00 -- 7 Este 19 Este 0 -- -- --
2019-08-02 16:00:00 -- 14 Este 25 Sudeste 0 -- -- --
2019-08-02 15:00:00 -- 6 Este 20 Sudeste 0 -- -- --
2019-08-02 14:00:00 -- 10 Este 18 Este 0 -- -- --
2019-08-02 13:00:00 -- 10 Sudeste 17 Este 0 -- -- --
2019-08-02 12:00:00 -- 9 Este 18 Este 0 -- -- --
2019-08-02 11:00:00 -- 8 Este 15 Sudeste 0 -- -- --
2019-08-02 10:00:00 -- 10 Sudeste 18 Sudeste 0 -- -- --
2019-08-02 09:00:00 -- 5 Sudeste 14 Sudeste 0 -- -- --
2019-08-02 08:00:00 -- 11 Sur 18 Sudeste 0 -- -- --
2019-08-02 07:00:00 -- 7 Oeste 11 Oeste 0 -- -- --
2019-08-02 06:00:00 -- 6 Oeste 9 Oeste 0 -- -- --
2019-08-02 05:00:00 -- 5 Sudoeste 10 Sudeste 0 -- -- --
2019-08-02 04:00:00 -- 5 Sur 17 Oeste 0 -- -- --
2019-08-02 03:00:00 -- 2 Noroeste 10 Oeste 0 -- -- --
2019-08-02 02:00:00 -- 5 Oeste 7 Oeste 0 -- -- --
2019-08-02 01:00:00 -- 3 Sudeste 10 Sur 0 -- -- --
2019-08-02 00:00:00 -- 4 Sur 7 Sur 0 -- -- --
2019-08-01 23:00:00 -- 5 Sur 12 Sur 0 -- -- --
2019-08-01 22:00:00 -- 5 Sur 11 Sur 0 -- -- --
2019-08-01 21:00:00 -- 2 Noroeste 9 Este 0 -- -- --
2019-08-01 20:00:00 -- 7 Norte 15 Sur 0 -- -- --
2019-08-01 19:00:00 -- 10 Sudoeste 21 Sudoeste 0 -- -- --
2019-08-01 18:00:00 -- 12 Sudoeste 25 Sudoeste 0 -- -- --
2019-08-01 17:00:00 -- 9 Sur 28 Sudeste 0 -- -- --
2019-08-01 16:00:00 -- 13 Este 23 Sudeste 0 -- -- --
2019-08-01 15:00:00 -- 13 Sudeste 23 Este 0 -- -- --
2019-08-01 14:00:00 -- 15 Sudeste 24 Sudeste 0 -- -- --
2019-08-01 13:00:00 -- 9 Sudeste 24 Este 0 -- -- --
2019-08-01 12:00:00 -- 10 Sudeste 26 Sudeste 0 -- -- --
2019-08-01 11:00:00 -- 10 Sur 19 Sudeste 0 -- -- --
2019-08-01 10:00:00 -- 3 Noroeste 13 Este 0 -- -- --
2019-08-01 09:00:00 -- 6 Nordeste 14 Sudoeste 0 -- -- --
2019-08-01 08:00:00 -- 7 Oeste 10 Noroeste 0 -- -- --
2019-08-01 07:00:00 -- 4 Sudoeste 7 Sudoeste 0 -- -- --
2019-08-01 06:00:00 -- 0 Calma 9 Sudoeste 0 -- -- --
2019-08-01 05:00:00 -- 0 Calma 7 Sudoeste 0 -- -- --
2019-08-01 04:00:00 -- 0 Calma 7 Sudoeste 0 -- -- --
2019-08-01 03:00:00 -- 0 Calma -- -- 0 -- -- --
2019-08-01 02:00:00 -- 0 Calma 3 Sur 0 -- -- --
2019-08-01 01:00:00 -- 0 Calma 6 Sur 0 -- -- --
2019-08-01 00:00:00 -- 4 Sur 12 Sur 0 -- -- --
2019-07-31 23:00:00 -- 2 Sur 12 Sudeste 0 -- -- --
2019-07-31 22:00:00 -- 5 Sur 12 Sudeste 0 -- -- --
2019-07-31 21:00:00 -- 7 Sudeste 12 Sudeste 0 -- -- --
2019-07-31 20:00:00 -- 5 Este 15 Sudeste 0 -- -- --
2019-07-31 19:00:00 -- 7 Nordeste 24 Sudoeste 0 -- -- --
2019-07-31 18:00:00 -- 17 Sudoeste 29 Sudoeste 0 -- -- --
2019-07-31 17:00:00 -- 17 Sudoeste 29 Sur 0 -- -- --
2019-07-31 16:00:00 -- 17 Sudeste 26 Sudeste 0 -- -- --
2019-07-31 15:00:00 -- 11 Sudeste 27 Sudeste 0 -- -- --
2019-07-31 14:00:00 -- 14 Sudeste 22 Sudeste 0 -- -- --
2019-07-31 13:00:00 -- 8 Este 18 Sur 0 -- -- --
2019-07-31 12:00:00 -- 10 Sudeste 26 Sudeste 0 -- -- --
2019-07-31 11:00:00 -- 8 Sudeste 17 Sudeste 0 -- -- --
2019-07-31 10:00:00 -- 3 Sudeste 13 Sudeste 0 -- -- --
2019-07-31 09:00:00 -- 11 Oeste 18 Sudoeste 0 -- -- --
2019-07-31 08:00:00 -- 4 Sudoeste 18 Sudoeste 0 -- -- --
2019-07-31 07:00:00 -- 8 Sudoeste 15 Sudoeste 0 -- -- --
2019-07-31 06:00:00 -- 2 Nordeste 28 Oeste 0 -- -- --
2019-07-31 05:00:00 -- 29 Sudoeste 56 Sudoeste 0 -- -- --
2019-07-31 04:00:00 -- 27 Noroeste 41 Noroeste 0 -- -- --
2019-07-31 03:00:00 -- 10 Sudeste 16 Sudeste 0 -- -- --
2019-07-31 02:00:00 -- 6 Sudeste 12 Sudeste 0 -- -- --
2019-07-31 01:00:00 -- 5 Oeste 13 Sur 0 -- -- --
2019-07-31 00:00:00 -- 3 Sudoeste 9 Oeste 0 -- -- --
2019-07-30 23:00:00 -- 4 Sudeste 15 Sudeste 0 -- -- --
2019-07-30 22:00:00 -- 5 Sudeste 18 Sur 0 -- -- --
2019-07-30 21:00:00 -- 9 Sudeste 17 Sudeste 0 -- -- --
2019-07-30 20:00:00 -- 4 Sur 13 Sudeste 0 -- -- --
2019-07-30 19:00:00 -- 4 Este 20 Sudeste 0 -- -- --
2019-07-30 18:00:00 -- 5 Sudeste 13 Sudeste 0 -- -- --
2019-07-30 17:00:00 -- 5 Sudeste 14 Este 0 -- -- --
2019-07-30 16:00:00 -- 7 Sudeste 14 Sudeste 0 -- -- --
2019-07-30 15:00:00 -- 9 Sudeste 15 Sudeste 0 -- -- --
2019-07-30 14:00:00 -- 11 Sudeste 16 Sudeste 0 -- -- --
2019-07-30 13:00:00 -- 7 Sudeste 18 Sudeste 0 -- -- --
2019-07-30 12:00:00 -- 9 Sudeste 15 Sudeste 0 -- -- --
2019-07-30 11:00:00 -- 8 Sudeste 13 Sudeste 0 -- -- --
2019-07-30 10:00:00 -- 4 Este 12 Sudeste 0 -- -- --
2019-07-30 09:00:00 -- 3 Sudeste 8 Sudeste 0 -- -- --
2019-07-30 08:00:00 -- 5 Sudeste 11 Sur 0 -- -- --
2019-07-30 07:00:00 -- 5 Sur 11 Sudeste 0 -- -- --
2019-07-30 06:00:00 -- 3 Oeste 7 Noroeste 0 -- -- --
2019-07-30 05:00:00 -- 3 Oeste 10 Sur 0 -- -- --
2019-07-30 04:00:00 -- 6 Sur 12 Sudeste 0 -- -- --
2019-07-30 03:00:00 -- 7 Sudeste 11 Sudeste 0 -- -- --
2019-07-30 02:00:00 -- 0 Calma 9 Noroeste 0 -- -- --
2019-07-30 01:00:00 -- 2 Oeste 9 Oeste 0 -- -- --
2019-07-30 00:00:00 -- 4 Sur 11 Sudeste 0 -- -- --
2019-07-29 23:00:00 -- 3 Oeste 12 Sur 0 -- -- --
2019-07-29 22:00:00 -- 7 Sur 11 Sur 0 -- -- --
2019-07-29 21:00:00 -- 0 Calma 9 Oeste 0 -- -- --
2019-07-29 20:00:00 -- 0 Calma 9 Nordeste 0 -- -- --
2019-07-29 19:00:00 -- 2 Este 8 Nordeste 0 -- -- --
2019-07-29 18:00:00 -- 2 Nordeste 12 Nordeste 0 -- -- --
2019-07-29 17:00:00 -- 7 Este 15 Nordeste 0 -- -- --
2019-07-29 16:00:00 -- 9 Este 17 Este 0 -- -- --
2019-07-29 15:00:00 -- 10 Este 17 Este 0 -- -- --
2019-07-29 14:00:00 -- 12 Este 18 Este 0 -- -- --
2019-07-29 13:00:00 -- 12 Sudeste 17 Sudeste 0 -- -- --
2019-07-29 12:00:00 -- 9 Sudeste 14 Sudeste 0 -- -- --
2019-07-29 11:00:00 -- 9 Este 15 Sudeste 0 -- -- --
2019-07-29 10:00:00 -- 7 Sudeste 13 Sudeste 0 -- -- --
2019-07-29 09:00:00 -- 3 Norte 7 Este 0 -- -- --
2019-07-29 08:00:00 -- 4 Sudeste 10 Oeste 0 -- -- --
2019-07-29 07:00:00 -- 2 Oeste 6 Sur 0 -- -- --
2019-07-29 06:00:00 -- 4 Sur 8 Sur 0 -- -- --
2019-07-29 05:00:00 -- 3 Oeste 6 Oeste 0 -- -- --
2019-07-29 04:00:00 -- 0 Calma 3 Oeste 0 -- -- --
2019-07-29 03:00:00 -- 0 Calma 3 Sudoeste 0 -- -- --
2019-07-29 02:00:00 -- 0 Calma 4 Sudoeste 0 -- -- --
2019-07-29 01:00:00 -- 2 Oeste 4 Oeste 0 -- -- --
2019-07-29 00:00:00 -- 2 Sudoeste 5 Oeste 0 -- -- --
2019-07-28 23:00:00 -- 0 Calma 3 Sudoeste 0 -- -- --
2019-07-28 22:00:00 -- 0 Calma 4 Oeste 0 -- -- --
2019-07-28 21:00:00 -- 2 Sur 6 Sur 0 -- -- --
2019-07-28 20:00:00 -- 4 Este 12 Sudeste 0 -- -- --
2019-07-28 19:00:00 -- 5 Este 14 Este 0 -- -- --
2019-07-28 18:00:00 -- 10 Sudeste 21 Sudeste 0 -- -- --
2019-07-28 17:00:00 -- 9 Sudeste 22 Este 0 -- -- --
2019-07-28 16:00:00 -- 11 Sudeste 21 Este 0 -- -- --
2019-07-28 15:00:00 -- 11 Sudeste 21 Sudeste 0 -- -- --
2019-07-28 14:00:00 -- 8 Este 17 Este 0 -- -- --
2019-07-28 13:00:00 -- 7 Este 18 Este 0 -- -- --
2019-07-28 12:00:00 -- 8 Este 17 Este 0 -- -- --
2019-07-28 11:00:00 -- 12 Sudeste 17 Sudeste 0 -- -- --
2019-07-28 10:00:00 -- 4 Este 12 Este 0 -- -- --
2019-07-28 09:00:00 -- 9 Sudeste 13 Sudeste 0 -- -- --
2019-07-28 08:00:00 -- 2 Noroeste 13 Oeste 0 -- -- --
2019-07-28 07:00:00 -- 0 Calma 5 Este 0 -- -- --
2019-07-28 06:00:00 -- 0 Calma 6 Noroeste 0 -- -- --
2019-07-28 05:00:00 -- 6 Noroeste 9 Noroeste 0 -- -- --
2019-07-28 04:00:00 -- 0 Calma 14 Sur 0 -- -- --
2019-07-28 03:00:00 -- 7 Sur 12 Sudeste 0 -- -- --
2019-07-28 02:00:00 -- 2 Sudeste 15 Sur 0 -- -- --
2019-07-28 01:00:00 -- 9 Noroeste 21 Oeste 0 -- -- --
2019-07-28 00:00:00 -- 12 Oeste 54 Oeste 0 -- -- --
2019-07-27 23:00:00 -- 32 Oeste 67 Oeste 0 -- -- --
2019-07-26 12:00:00 -- -- -- -- -- -- -- -- --
2019-07-26 11:00:00 -- -- -- -- -- -- -- -- --
2019-07-26 10:00:00 -- 4 Este 9 Sudeste 0 -- -- --
2019-07-26 09:00:00 -- 2 Nordeste 8 Sudeste 0 -- -- --
2019-07-26 08:00:00 -- 2 Sur 10 Oeste 0 -- -- --
2019-07-26 07:00:00 -- 0 Calma 5 Sudoeste 0 -- -- --
2019-07-26 06:00:00 -- 2 Sudoeste 8 Oeste 0 -- -- --
2019-07-26 05:00:00 -- 3 Oeste 6 Sudeste 0 -- -- --
2019-07-26 04:00:00 -- 4 Sur 13 Oeste 0 -- -- --
2019-07-26 03:00:00 -- 2 Oeste 6 Sudoeste 0 -- -- --
2019-07-26 02:00:00 -- 3 Sudoeste 9 Oeste 0 -- -- --
2019-07-26 01:00:00 -- 3 Sudoeste 6 Oeste 0 -- -- --
2019-07-26 00:00:00 -- 3 Sur 8 Oeste 0 -- -- --